sensor_id;sensor_type;location;lat;lon;timestamp;temperature;humidity
14473;DHT22;7322;50.872;4.386;2023-05-24T00:01:20;22.30;99.90
14473;DHT22;7322;50.872;4.386;2023-05-24T00:03:50;22.20;99.90
14473;DHT22;7322;50.872;4.386;2023-05-24T00:06:19;22.20;99.90
14473;DHT22;7322;50.872;4.386;2023-05-24T00:08:54;22.20;99.90
14473;DHT22;7322;50.872;4.386;2023-05-24T00:11:26;22.30;99.90
14473;DHT22;7322;50.872;4.386;2023-05-24T00:14:03;22.40;99.90
14473;DHT22;7322;50.872;4.386;2023-05-24T00:16:50;22.40;99.90
14473;DHT22;7322;50.872;4.386;2023-05-24T00:19:29;22.50;99.90
14473;DHT22;7322;50.872;4.386;2023-05-24T00:22:19;22.40;99.90
14473;DHT22;7322;50.872;4.386;2023-05-24T00:25:01;22.50;99.90
14473;DHT22;7322;50.872;4.386;2023-05-24T00:27:30;22.60;99.90
14473;DHT22;7322;50.872;4.386;2023-05-24T00:30:10;22.60;99.90
14473;DHT22;7322;50.872;4.386;2023-05-24T00:32:50;22.60;99.90
14473;DHT22;7322;50.872;4.386;2023-05-24T00:35:36;22.60;99.90
14473;DHT22;7322;50.872;4.386;2023-05-24T00:38:34;22.50;99.90
14473;DHT22;7322;50.872;4.386;2023-05-24T00:44:49;22.40;99.90
14473;DHT22;7322;50.872;4.386;2023-05-24T00:47:26;22.50;99.90
14473;DHT22;7322;50.872;4.386;2023-05-24T00:49:53;22.60;99.90
14473;DHT22;7322;50.872;4.386;2023-05-24T00:52:23;22.60;99.90
14473;DHT22;7322;50.872;4.386;2023-05-24T00:54:49;22.60;99.90
14473;DHT22;7322;50.872;4.386;2023-05-24T00:57:30;22.70;99.90
14473;DHT22;7322;50.872;4.386;2023-05-24T01:00:20;22.70;99.90
14473;DHT22;7322;50.872;4.386;2023-05-24T01:02:51;22.70;99.90
14473;DHT22;7322;50.872;4.386;2023-05-24T01:05:20;22.70;99.90
14473;DHT22;7322;50.872;4.386;2023-05-24T01:07:53;22.50;99.90
14473;DHT22;7322;50.872;4.386;2023-05-24T01:10:41;22.40;99.90
14473;DHT22;7322;50.872;4.386;2023-05-24T01:13:23;22.50;99.90
14473;DHT22;7322;50.872;4.386;2023-05-24T01:15:58;22.40;99.90
14473;DHT22;7322;50.872;4.386;2023-05-24T01:18:57;22.40;99.90
14473;DHT22;7322;50.872;4.386;2023-05-24T01:21:45;22.30;99.90
14473;DHT22;7322;50.872;4.386;2023-05-24T01:24:43;22.30;99.90
14473;DHT22;7322;50.872;4.386;2023-05-24T01:27:22;22.30;99.90
14473;DHT22;7322;50.872;4.386;2023-05-24T01:29:49;22.30;99.90
14473;DHT22;7322;50.872;4.386;2023-05-24T01:32:19;22.30;99.90
14473;DHT22;7322;50.872;4.386;2023-05-24T01:34:49;22.40;99.90
14473;DHT22;7322;50.872;4.386;2023-05-24T01:40:38;22.40;99.90
14473;DHT22;7322;50.872;4.386;2023-05-24T01:43:15;22.40;99.90
14473;DHT22;7322;50.872;4.386;2023-05-24T01:45:56;22.50;99.90
14473;DHT22;7322;50.872;4.386;2023-05-24T01:48:51;22.50;99.90
14473;DHT22;7322;50.872;4.386;2023-05-24T01:51:39;22.50;99.90
14473;DHT22;7322;50.872;4.386;2023-05-24T01:54:22;22.60;99.90
14473;DHT22;7322;50.872;4.386;2023-05-24T01:56:51;22.60;99.90
14473;DHT22;7322;50.872;4.386;2023-05-24T01:59:23;22.50;99.90
14473;DHT22;7322;50.872;4.386;2023-05-24T02:02:08;22.60;99.90
14473;DHT22;7322;50.872;4.386;2023-05-24T02:04:41;22.70;99.90
14473;DHT22;7322;50.872;4.386;2023-05-24T02:07:20;22.70;99.90
14473;DHT22;7322;50.872;4.386;2023-05-24T02:10:19;22.70;99.90
14473;DHT22;7322;50.872;4.386;2023-05-24T02:13:01;22.80;99.90
14473;DHT22;7322;50.872;4.386;2023-05-24T02:15:33;22.80;99.90
14473;DHT22;7322;50.872;4.386;2023-05-24T02:18:02;22.80;99.90
14473;DHT22;7322;50.872;4.386;2023-05-24T02:20:30;22.80;99.90
14473;DHT22;7322;50.872;4.386;2023-05-24T02:23:15;22.80;99.90
14473;DHT22;7322;50.872;4.386;2023-05-24T02:26:11;22.90;99.90
14473;DHT22;7322;50.872;4.386;2023-05-24T02:31:51;22.90;99.90
14473;DHT22;7322;50.872;4.386;2023-05-24T02:37:49;22.70;99.90
14473;DHT22;7322;50.872;4.386;2023-05-24T02:40:33;22.70;99.90
14473;DHT22;7322;50.872;4.386;2023-05-24T02:43:05;22.70;99.90
14473;DHT22;7322;50.872;4.386;2023-05-24T02:46:01;22.70;99.90
14473;DHT22;7322;50.872;4.386;2023-05-24T02:48:39;22.70;99.90
14473;DHT22;7322;50.872;4.386;2023-05-24T02:51:17;22.80;99.90
14473;DHT22;7322;50.872;4.386;2023-05-24T02:53:45;22.80;99.90
14473;DHT22;7322;50.872;4.386;2023-05-24T02:56:20;22.80;99.90
14473;DHT22;7322;50.872;4.386;2023-05-24T02:58:58;22.80;99.90
14473;DHT22;7322;50.872;4.386;2023-05-24T03:01:49;22.80;99.90
14473;DHT22;7322;50.872;4.386;2023-05-24T03:04:30;22.80;99.90
14473;DHT22;7322;50.872;4.386;2023-05-24T03:07:19;22.80;99.90
14473;DHT22;7322;50.872;4.386;2023-05-24T03:09:54;22.90;99.90
14473;DHT22;7322;50.872;4.386;2023-05-24T03:12:22;22.80;99.90
14473;DHT22;7322;50.872;4.386;2023-05-24T03:14:49;22.80;99.90
14473;DHT22;7322;50.872;4.386;2023-05-24T03:20:28;22.90;99.90
14473;DHT22;7322;50.872;4.386;2023-05-24T03:23:08;22.80;99.90
14473;DHT22;7322;50.872;4.386;2023-05-24T03:25:37;22.70;99.90
14473;DHT22;7322;50.872;4.386;2023-05-24T03:28:11;22.60;99.90
14473;DHT22;7322;50.872;4.386;2023-05-24T03:30:41;22.50;99.90
14473;DHT22;7322;50.872;4.386;2023-05-24T03:33:28;22.50;99.90
14473;DHT22;7322;50.872;4.386;2023-05-24T03:36:20;22.60;99.90
14473;DHT22;7322;50.872;4.386;2023-05-24T03:38:49;22.70;99.90
14473;DHT22;7322;50.872;4.386;2023-05-24T03:41:19;22.60;99.90
14473;DHT22;7322;50.872;4.386;2023-05-24T03:43:47;22.60;99.90
14473;DHT22;7322;50.872;4.386;2023-05-24T03:46:21;22.60;99.90
14473;DHT22;7322;50.872;4.386;2023-05-24T03:52:29;22.70;99.90
14473;DHT22;7322;50.872;4.386;2023-05-24T03:55:19;22.70;99.90
14473;DHT22;7322;50.872;4.386;2023-05-24T03:57:47;22.70;99.90
14473;DHT22;7322;50.872;4.386;2023-05-24T04:00:29;22.70;99.90
14473;DHT22;7322;50.872;4.386;2023-05-24T04:02:57;22.70;99.90
14473;DHT22;7322;50.872;4.386;2023-05-24T04:05:32;22.60;99.90
14473;DHT22;7322;50.872;4.386;2023-05-24T04:11:17;22.60;99.90
14473;DHT22;7322;50.872;4.386;2023-05-24T04:17:01;22.60;99.90
14473;DHT22;7322;50.872;4.386;2023-05-24T04:19:32;22.60;99.90
14473;DHT22;7322;50.872;4.386;2023-05-24T04:22:00;22.70;99.90
14473;DHT22;7322;50.872;4.386;2023-05-24T04:24:33;22.70;99.90
14473;DHT22;7322;50.872;4.386;2023-05-24T04:27:03;22.70;99.90
14473;DHT22;7322;50.872;4.386;2023-05-24T04:29:31;22.70;99.90
14473;DHT22;7322;50.872;4.386;2023-05-24T04:31:58;22.70;99.90
14473;DHT22;7322;50.872;4.386;2023-05-24T04:34:27;22.80;99.90
14473;DHT22;7322;50.872;4.386;2023-05-24T04:37:11;22.70;99.90
14473;DHT22;7322;50.872;4.386;2023-05-24T04:39:50;22.70;99.90
14473;DHT22;7322;50.872;4.386;2023-05-24T04:42:20;22.60;99.90
14473;DHT22;7322;50.872;4.386;2023-05-24T04:44:48;22.60;99.90
14473;DHT22;7322;50.872;4.386;2023-05-24T04:47:15;22.70;99.90
14473;DHT22;7322;50.872;4.386;2023-05-24T04:49:48;22.60;99.90
14473;DHT22;7322;50.872;4.386;2023-05-24T04:52:20;22.70;99.90
14473;DHT22;7322;50.872;4.386;2023-05-24T04:54:48;22.70;99.90
14473;DHT22;7322;50.872;4.386;2023-05-24T04:57:16;22.70;99.90
14473;DHT22;7322;50.872;4.386;2023-05-24T04:59:51;22.70;99.90
14473;DHT22;7322;50.872;4.386;2023-05-24T05:02:20;22.70;99.90
14473;DHT22;7322;50.872;4.386;2023-05-24T05:04:55;22.70;99.90
14473;DHT22;7322;50.872;4.386;2023-05-24T05:07:22;22.80;99.90
14473;DHT22;7322;50.872;4.386;2023-05-24T05:09:49;22.70;99.90
14473;DHT22;7322;50.872;4.386;2023-05-24T05:12:24;22.70;99.90
14473;DHT22;7322;50.872;4.386;2023-05-24T05:14:56;22.80;99.90
14473;DHT22;7322;50.872;4.386;2023-05-24T05:17:25;22.80;99.90
14473;DHT22;7322;50.872;4.386;2023-05-24T05:19:52;22.70;99.90
14473;DHT22;7322;50.872;4.386;2023-05-24T05:22:20;22.70;99.90
14473;DHT22;7322;50.872;4.386;2023-05-24T05:24:50;22.70;99.90
14473;DHT22;7322;50.872;4.386;2023-05-24T05:27:20;22.70;99.90
14473;DHT22;7322;50.872;4.386;2023-05-24T05:29:50;22.70;99.90
14473;DHT22;7322;50.872;4.386;2023-05-24T05:32:22;22.70;99.90
14473;DHT22;7322;50.872;4.386;2023-05-24T05:34:49;22.80;99.90
14473;DHT22;7322;50.872;4.386;2023-05-24T05:37:23;22.70;99.90
14473;DHT22;7322;50.872;4.386;2023-05-24T05:39:50;22.80;99.90
14473;DHT22;7322;50.872;4.386;2023-05-24T05:42:24;22.70;99.90
14473;DHT22;7322;50.872;4.386;2023-05-24T05:44:52;22.70;99.90
14473;DHT22;7322;50.872;4.386;2023-05-24T05:47:21;22.60;99.90
14473;DHT22;7322;50.872;4.386;2023-05-24T05:50:19;22.70;99.90
14473;DHT22;7322;50.872;4.386;2023-05-24T05:52:49;22.70;99.90
14473;DHT22;7322;50.872;4.386;2023-05-24T05:55:17;22.50;99.90
14473;DHT22;7322;50.872;4.386;2023-05-24T05:57:52;22.50;99.90
14473;DHT22;7322;50.872;4.386;2023-05-24T06:00:26;22.40;99.90
14473;DHT22;7322;50.872;4.386;2023-05-24T06:03:15;22.30;99.90
14473;DHT22;7322;50.872;4.386;2023-05-24T06:05:49;22.40;99.90
14473;DHT22;7322;50.872;4.386;2023-05-24T06:08:19;22.50;99.90
14473;DHT22;7322;50.872;4.386;2023-05-24T06:10:47;22.40;99.90
14473;DHT22;7322;50.872;4.386;2023-05-24T06:13:14;22.40;99.90
14473;DHT22;7322;50.872;4.386;2023-05-24T06:15:48;22.50;99.90
14473;DHT22;7322;50.872;4.386;2023-05-24T06:18:31;22.50;99.90
14473;DHT22;7322;50.872;4.386;2023-05-24T06:20:59;22.50;99.90
14473;DHT22;7322;50.872;4.386;2023-05-24T06:23:31;22.40;99.90
14473;DHT22;7322;50.872;4.386;2023-05-24T06:26:00;22.40;99.90
14473;DHT22;7322;50.872;4.386;2023-05-24T06:28:30;22.50;99.90
14473;DHT22;7322;50.872;4.386;2023-05-24T06:30:59;22.50;99.90
14473;DHT22;7322;50.872;4.386;2023-05-24T06:33:33;22.50;99.90
14473;DHT22;7322;50.872;4.386;2023-05-24T06:36:00;22.50;99.90
14473;DHT22;7322;50.872;4.386;2023-05-24T06:38:29;22.40;99.90
14473;DHT22;7322;50.872;4.386;2023-05-24T06:41:05;22.40;99.90
14473;DHT22;7322;50.872;4.386;2023-05-24T06:43:35;22.40;99.90
14473;DHT22;7322;50.872;4.386;2023-05-24T06:46:07;22.40;99.90
14473;DHT22;7322;50.872;4.386;2023-05-24T06:48:47;22.30;99.90
14473;DHT22;7322;50.872;4.386;2023-05-24T06:51:15;22.30;99.90
14473;DHT22;7322;50.872;4.386;2023-05-24T06:53:50;22.40;99.90
14473;DHT22;7322;50.872;4.386;2023-05-24T06:56:17;22.50;99.90
14473;DHT22;7322;50.872;4.386;2023-05-24T06:58:46;22.50;99.90
14473;DHT22;7322;50.872;4.386;2023-05-24T07:01:14;22.50;99.90
14473;DHT22;7322;50.872;4.386;2023-05-24T07:03:49;22.50;99.90
14473;DHT22;7322;50.872;4.386;2023-05-24T07:06:16;22.70;99.90
14473;DHT22;7322;50.872;4.386;2023-05-24T07:08:44;22.70;99.90
14473;DHT22;7322;50.872;4.386;2023-05-24T07:11:19;22.70;99.90
14473;DHT22;7322;50.872;4.386;2023-05-24T07:13:46;22.70;99.90
14473;DHT22;7322;50.872;4.386;2023-05-24T07:16:13;22.80;99.90
14473;DHT22;7322;50.872;4.386;2023-05-24T07:18:40;22.70;99.90
14473;DHT22;7322;50.872;4.386;2023-05-24T07:21:16;22.80;99.90
14473;DHT22;7322;50.872;4.386;2023-05-24T07:23:43;22.70;99.90
14473;DHT22;7322;50.872;4.386;2023-05-24T07:26:11;22.70;99.90
14473;DHT22;7322;50.872;4.386;2023-05-24T07:28:38;22.70;99.90
14473;DHT22;7322;50.872;4.386;2023-05-24T07:31:07;22.70;99.90
14473;DHT22;7322;50.872;4.386;2023-05-24T07:33:35;22.60;99.90
14473;DHT22;7322;50.872;4.386;2023-05-24T07:36:04;22.60;99.90
14473;DHT22;7322;50.872;4.386;2023-05-24T07:38:33;22.60;99.90
14473;DHT22;7322;50.872;4.386;2023-05-24T07:41:06;22.50;99.90
14473;DHT22;7322;50.872;4.386;2023-05-24T07:43:33;22.50;99.90
14473;DHT22;7322;50.872;4.386;2023-05-24T07:46:03;22.50;99.90
14473;DHT22;7322;50.872;4.386;2023-05-24T07:48:41;22.50;99.90
14473;DHT22;7322;50.872;4.386;2023-05-24T07:51:09;22.50;99.90
14473;DHT22;7322;50.872;4.386;2023-05-24T07:53:38;22.50;99.90
14473;DHT22;7322;50.872;4.386;2023-05-24T07:56:07;22.60;99.90
14473;DHT22;7322;50.872;4.386;2023-05-24T07:58:37;22.60;99.90
14473;DHT22;7322;50.872;4.386;2023-05-24T08:01:06;22.70;99.90
14473;DHT22;7322;50.872;4.386;2023-05-24T08:03:35;22.70;99.90
14473;DHT22;7322;50.872;4.386;2023-05-24T08:06:03;22.80;99.90
14473;DHT22;7322;50.872;4.386;2023-05-24T08:08:30;22.80;99.90
14473;DHT22;7322;50.872;4.386;2023-05-24T08:11:00;22.80;99.90
14473;DHT22;7322;50.872;4.386;2023-05-24T08:13:29;22.80;99.90
14473;DHT22;7322;50.872;4.386;2023-05-24T08:15:57;22.90;99.90
14473;DHT22;7322;50.872;4.386;2023-05-24T08:18:24;22.80;99.90
14473;DHT22;7322;50.872;4.386;2023-05-24T08:20:52;22.90;99.90
14473;DHT22;7322;50.872;4.386;2023-05-24T08:23:19;22.90;99.90
14473;DHT22;7322;50.872;4.386;2023-05-24T08:25:48;22.90;99.90
14473;DHT22;7322;50.872;4.386;2023-05-24T08:28:19;23.00;99.90
14473;DHT22;7322;50.872;4.386;2023-05-24T08:30:46;22.90;99.90
14473;DHT22;7322;50.872;4.386;2023-05-24T08:33:13;22.90;99.90
14473;DHT22;7322;50.872;4.386;2023-05-24T08:35:42;22.80;99.90
14473;DHT22;7322;50.872;4.386;2023-05-24T08:38:09;22.80;99.90
14473;DHT22;7322;50.872;4.386;2023-05-24T08:40:37;22.90;99.90
14473;DHT22;7322;50.872;4.386;2023-05-24T08:43:06;23.00;99.90
14473;DHT22;7322;50.872;4.386;2023-05-24T08:45:42;22.90;99.90
14473;DHT22;7322;50.872;4.386;2023-05-24T08:48:10;22.90;99.90
14473;DHT22;7322;50.872;4.386;2023-05-24T08:50:38;22.80;99.90
14473;DHT22;7322;50.872;4.386;2023-05-24T08:53:06;22.90;99.90
14473;DHT22;7322;50.872;4.386;2023-05-24T08:55:35;22.90;99.90
14473;DHT22;7322;50.872;4.386;2023-05-24T08:58:04;23.00;99.90
14473;DHT22;7322;50.872;4.386;2023-05-24T09:00:32;23.00;99.90
14473;DHT22;7322;50.872;4.386;2023-05-24T09:03:03;23.00;99.90
14473;DHT22;7322;50.872;4.386;2023-05-24T09:05:31;23.00;99.90
14473;DHT22;7322;50.872;4.386;2023-05-24T09:07:59;23.00;99.90
14473;DHT22;7322;50.872;4.386;2023-05-24T09:10:28;23.00;99.90
14473;DHT22;7322;50.872;4.386;2023-05-24T09:12:56;23.00;99.90
14473;DHT22;7322;50.872;4.386;2023-05-24T09:15:23;22.90;99.90
14473;DHT22;7322;50.872;4.386;2023-05-24T09:17:53;22.90;99.90
14473;DHT22;7322;50.872;4.386;2023-05-24T09:20:22;22.90;99.90
14473;DHT22;7322;50.872;4.386;2023-05-24T09:23:03;22.80;99.90
14473;DHT22;7322;50.872;4.386;2023-05-24T09:25:32;22.90;99.90
14473;DHT22;7322;50.872;4.386;2023-05-24T09:28:12;22.80;99.90
14473;DHT22;7322;50.872;4.386;2023-05-24T09:30:57;23.00;99.90
14473;DHT22;7322;50.872;4.386;2023-05-24T09:33:38;23.00;99.90
14473;DHT22;7322;50.872;4.386;2023-05-24T09:36:32;23.00;99.90
14473;DHT22;7322;50.872;4.386;2023-05-24T09:39:07;23.00;99.90
14473;DHT22;7322;50.872;4.386;2023-05-24T09:41:42;23.10;99.90
14473;DHT22;7322;50.872;4.386;2023-05-24T09:44:23;23.10;99.90
14473;DHT22;7322;50.872;4.386;2023-05-24T09:47:03;23.10;99.90
14473;DHT22;7322;50.872;4.386;2023-05-24T09:49:46;23.10;99.90
14473;DHT22;7322;50.872;4.386;2023-05-24T09:52:35;23.10;99.90
14473;DHT22;7322;50.872;4.386;2023-05-24T09:55:10;23.00;99.90
14473;DHT22;7322;50.872;4.386;2023-05-24T09:57:38;22.90;99.90
14473;DHT22;7322;50.872;4.386;2023-05-24T10:00:20;22.90;99.90
14473;DHT22;7322;50.872;4.386;2023-05-24T10:03:00;23.00;99.90
14473;DHT22;7322;50.872;4.386;2023-05-24T10:05:28;23.00;99.90
14473;DHT22;7322;50.872;4.386;2023-05-24T10:08:03;23.00;99.90
14473;DHT22;7322;50.872;4.386;2023-05-24T10:10:41;23.10;99.90
14473;DHT22;7322;50.872;4.386;2023-05-24T10:13:22;23.10;99.90
14473;DHT22;7322;50.872;4.386;2023-05-24T10:15:50;23.10;99.90
14473;DHT22;7322;50.872;4.386;2023-05-24T10:18:19;23.10;99.90
14473;DHT22;7322;50.872;4.386;2023-05-24T10:20:50;23.20;99.90
14473;DHT22;7322;50.872;4.386;2023-05-24T10:23:29;23.10;99.90
14473;DHT22;7322;50.872;4.386;2023-05-24T10:26:09;23.10;99.90
14473;DHT22;7322;50.872;4.386;2023-05-24T10:28:41;23.10;99.90
14473;DHT22;7322;50.872;4.386;2023-05-24T10:31:13;23.00;99.90
14473;DHT22;7322;50.872;4.386;2023-05-24T10:33:50;23.00;99.90
14473;DHT22;7322;50.872;4.386;2023-05-24T10:36:19;23.10;99.90
14473;DHT22;7322;50.872;4.386;2023-05-24T10:38:52;23.10;99.90
14473;DHT22;7322;50.872;4.386;2023-05-24T10:41:25;23.10;99.90
14473;DHT22;7322;50.872;4.386;2023-05-24T10:44:19;23.10;99.90
14473;DHT22;7322;50.872;4.386;2023-05-24T10:47:10;23.20;99.90
14473;DHT22;7322;50.872;4.386;2023-05-24T10:49:47;23.10;99.90
14473;DHT22;7322;50.872;4.386;2023-05-24T10:52:20;23.10;99.90
14473;DHT22;7322;50.872;4.386;2023-05-24T10:55:04;23.10;99.90
14473;DHT22;7322;50.872;4.386;2023-05-24T10:58:02;23.10;99.90
14473;DHT22;7322;50.872;4.386;2023-05-24T11:00:50;23.10;99.90
14473;DHT22;7322;50.872;4.386;2023-05-24T11:03:19;23.10;99.90
14473;DHT22;7322;50.872;4.386;2023-05-24T11:06:08;23.00;99.90
14473;DHT22;7322;50.872;4.386;2023-05-24T11:11:56;23.10;99.90
14473;DHT22;7322;50.872;4.386;2023-05-24T11:14:50;23.10;99.90
14473;DHT22;7322;50.872;4.386;2023-05-24T11:17:26;23.20;99.90
14473;DHT22;7322;50.872;4.386;2023-05-24T11:20:26;23.20;99.90
14473;DHT22;7322;50.872;4.386;2023-05-24T11:22:58;23.20;99.90
14473;DHT22;7322;50.872;4.386;2023-05-24T11:25:49;23.10;99.90
14473;DHT22;7322;50.872;4.386;2023-05-24T11:28:24;23.20;99.90
14473;DHT22;7322;50.872;4.386;2023-05-24T11:31:07;23.20;99.90
14473;DHT22;7322;50.872;4.386;2023-05-24T11:33:34;23.10;99.90
14473;DHT22;7322;50.872;4.386;2023-05-24T11:36:07;23.10;99.90
14473;DHT22;7322;50.872;4.386;2023-05-24T11:38:54;23.10;99.90
14473;DHT22;7322;50.872;4.386;2023-05-24T11:41:49;23.20;99.90
14473;DHT22;7322;50.872;4.386;2023-05-24T11:44:22;23.20;99.90
14473;DHT22;7322;50.872;4.386;2023-05-24T11:47:01;23.10;99.90
14473;DHT22;7322;50.872;4.386;2023-05-24T11:49:39;23.20;99.90
14473;DHT22;7322;50.872;4.386;2023-05-24T11:52:37;23.20;99.90
14473;DHT22;7322;50.872;4.386;2023-05-24T11:55:22;23.20;99.90
14473;DHT22;7322;50.872;4.386;2023-05-24T11:57:57;23.20;99.90
14473;DHT22;7322;50.872;4.386;2023-05-24T12:00:36;23.20;99.90
14473;DHT22;7322;50.872;4.386;2023-05-24T12:06:16;23.30;99.90
14473;DHT22;7322;50.872;4.386;2023-05-24T12:08:50;23.30;99.90
14473;DHT22;7322;50.872;4.386;2023-05-24T12:11:23;23.30;99.90
14473;DHT22;7322;50.872;4.386;2023-05-24T12:14:22;23.30;99.90
14473;DHT22;7322;50.872;4.386;2023-05-24T12:16:55;23.30;99.90
14473;DHT22;7322;50.872;4.386;2023-05-24T12:19:31;23.30;99.90
14473;DHT22;7322;50.872;4.386;2023-05-24T12:25:15;23.30;99.90
14473;DHT22;7322;50.872;4.386;2023-05-24T12:27:46;23.30;99.90
14473;DHT22;7322;50.872;4.386;2023-05-24T12:33:10;23.30;99.90
14473;DHT22;7322;50.872;4.386;2023-05-24T12:39:20;23.30;99.90
14473;DHT22;7322;50.872;4.386;2023-05-24T12:45:10;23.30;99.90
14473;DHT22;7322;50.872;4.386;2023-05-24T12:47:39;23.30;99.90
14473;DHT22;7322;50.872;4.386;2023-05-24T12:50:45;23.30;99.90
14473;DHT22;7322;50.872;4.386;2023-05-24T12:53:14;23.30;99.90
14473;DHT22;7322;50.872;4.386;2023-05-24T12:55:50;23.30;99.90
14473;DHT22;7322;50.872;4.386;2023-05-24T12:58:22;23.40;99.90
14473;DHT22;7322;50.872;4.386;2023-05-24T13:00:50;23.40;99.90
14473;DHT22;7322;50.872;4.386;2023-05-24T13:03:32;23.40;99.90
14473;DHT22;7322;50.872;4.386;2023-05-24T13:06:32;23.40;99.90
14473;DHT22;7322;50.872;4.386;2023-05-24T13:09:08;23.50;99.90
14473;DHT22;7322;50.872;4.386;2023-05-24T13:15:08;23.40;99.90
14473;DHT22;7322;50.872;4.386;2023-05-24T13:17:37;23.40;99.90
14473;DHT22;7322;50.872;4.386;2023-05-24T13:20:12;23.40;99.90
14473;DHT22;7322;50.872;4.386;2023-05-24T13:22:51;23.40;99.90
14473;DHT22;7322;50.872;4.386;2023-05-24T13:25:20;23.40;99.90
14473;DHT22;7322;50.872;4.386;2023-05-24T13:28:02;23.40;99.90
14473;DHT22;7322;50.872;4.386;2023-05-24T13:30:36;23.40;99.90
14473;DHT22;7322;50.872;4.386;2023-05-24T13:33:09;23.50;99.90
14473;DHT22;7322;50.872;4.386;2023-05-24T13:35:42;23.50;99.90
14473;DHT22;7322;50.872;4.386;2023-05-24T13:38:21;23.50;99.90
14473;DHT22;7322;50.872;4.386;2023-05-24T13:40:50;23.50;99.90
14473;DHT22;7322;50.872;4.386;2023-05-24T13:43:20;23.40;99.90
14473;DHT22;7322;50.872;4.386;2023-05-24T13:46:15;23.40;99.90
14473;DHT22;7322;50.872;4.386;2023-05-24T13:48:49;23.40;99.90
14473;DHT22;7322;50.872;4.386;2023-05-24T13:51:32;23.30;99.90
14473;DHT22;7322;50.872;4.386;2023-05-24T13:54:10;23.30;99.90
14473;DHT22;7322;50.872;4.386;2023-05-24T13:56:39;23.20;99.90
14473;DHT22;7322;50.872;4.386;2023-05-24T13:59:09;23.20;99.90
14473;DHT22;7322;50.872;4.386;2023-05-24T14:01:40;23.20;99.90
14473;DHT22;7322;50.872;4.386;2023-05-24T14:04:18;23.30;99.90
14473;DHT22;7322;50.872;4.386;2023-05-24T14:06:51;23.30;99.90
14473;DHT22;7322;50.872;4.386;2023-05-24T14:09:22;23.30;99.90
14473;DHT22;7322;50.872;4.386;2023-05-24T14:11:50;23.20;99.90
14473;DHT22;7322;50.872;4.386;2023-05-24T14:14:17;23.10;99.90
14473;DHT22;7322;50.872;4.386;2023-05-24T14:16:44;23.10;99.90
14473;DHT22;7322;50.872;4.386;2023-05-24T14:19:16;23.10;99.90
14473;DHT22;7322;50.872;4.386;2023-05-24T14:21:50;23.10;99.90
14473;DHT22;7322;50.872;4.386;2023-05-24T14:24:22;23.20;99.90
14473;DHT22;7322;50.872;4.386;2023-05-24T14:27:20;23.20;99.90
14473;DHT22;7322;50.872;4.386;2023-05-24T14:30:11;23.20;99.90
14473;DHT22;7322;50.872;4.386;2023-05-24T14:32:38;23.20;99.90
14473;DHT22;7322;50.872;4.386;2023-05-24T14:35:20;23.10;99.90
14473;DHT22;7322;50.872;4.386;2023-05-24T14:37:50;23.10;99.90
14473;DHT22;7322;50.872;4.386;2023-05-24T14:40:21;23.10;99.90
14473;DHT22;7322;50.872;4.386;2023-05-24T14:43:11;23.00;99.90
14473;DHT22;7322;50.872;4.386;2023-05-24T14:45:39;23.00;99.90
14473;DHT22;7322;50.872;4.386;2023-05-24T14:48:10;22.90;99.90
14473;DHT22;7322;50.872;4.386;2023-05-24T14:50:50;22.90;99.90
14473;DHT22;7322;50.872;4.386;2023-05-24T14:53:32;23.00;99.90
14473;DHT22;7322;50.872;4.386;2023-05-24T14:56:04;23.00;99.90
14473;DHT22;7322;50.872;4.386;2023-05-24T14:58:32;23.00;99.90
14473;DHT22;7322;50.872;4.386;2023-05-24T15:01:16;23.00;99.90
14473;DHT22;7322;50.872;4.386;2023-05-24T15:03:57;23.00;99.90
14473;DHT22;7322;50.872;4.386;2023-05-24T15:09:48;23.00;99.90
14473;DHT22;7322;50.872;4.386;2023-05-24T15:12:35;23.00;99.90
14473;DHT22;7322;50.872;4.386;2023-05-24T15:15:20;22.90;99.90
14473;DHT22;7322;50.872;4.386;2023-05-24T15:18:16;23.00;99.90
14473;DHT22;7322;50.872;4.386;2023-05-24T15:21:11;23.00;99.90
14473;DHT22;7322;50.872;4.386;2023-05-24T15:23:50;23.10;99.90
14473;DHT22;7322;50.872;4.386;2023-05-24T15:26:42;23.10;99.90
14473;DHT22;7322;50.872;4.386;2023-05-24T15:32:40;23.00;99.90
14473;DHT22;7322;50.872;4.386;2023-05-24T15:35:29;23.00;99.90
14473;DHT22;7322;50.872;4.386;2023-05-24T15:38:04;23.10;99.90
14473;DHT22;7322;50.872;4.386;2023-05-24T15:40:43;23.10;99.90
14473;DHT22;7322;50.872;4.386;2023-05-24T15:43:17;23.10;99.90
14473;DHT22;7322;50.872;4.386;2023-05-24T15:45:56;23.20;99.90
14473;DHT22;7322;50.872;4.386;2023-05-24T15:48:24;23.20;99.90
14473;DHT22;7322;50.872;4.386;2023-05-24T15:50:52;23.20;99.90
14473;DHT22;7322;50.872;4.386;2023-05-24T15:53:21;23.20;99.90
14473;DHT22;7322;50.872;4.386;2023-05-24T15:55:49;23.30;99.90
14473;DHT22;7322;50.872;4.386;2023-05-24T15:58:23;23.30;99.90
14473;DHT22;7322;50.872;4.386;2023-05-24T16:01:09;23.20;99.90
14473;DHT22;7322;50.872;4.386;2023-05-24T16:03:45;23.30;99.90
14473;DHT22;7322;50.872;4.386;2023-05-24T16:06:32;23.30;99.90
14473;DHT22;7322;50.872;4.386;2023-05-24T16:09:08;23.40;99.90
14473;DHT22;7322;50.872;4.386;2023-05-24T16:11:50;23.50;99.90
14473;DHT22;7322;50.872;4.386;2023-05-24T16:14:47;23.50;99.90
14473;DHT22;7322;50.872;4.386;2023-05-24T16:17:14;23.40;99.90
14473;DHT22;7322;50.872;4.386;2023-05-24T16:19:52;23.40;99.90
14473;DHT22;7322;50.872;4.386;2023-05-24T16:22:20;23.50;99.90
14473;DHT22;7322;50.872;4.386;2023-05-24T16:24:48;23.40;99.90
14473;DHT22;7322;50.872;4.386;2023-05-24T16:27:28;23.40;99.90
14473;DHT22;7322;50.872;4.386;2023-05-24T16:30:09;23.50;99.90
14473;DHT22;7322;50.872;4.386;2023-05-24T16:32:38;23.50;99.90
14473;DHT22;7322;50.872;4.386;2023-05-24T16:35:26;23.50;99.90
14473;DHT22;7322;50.872;4.386;2023-05-24T16:38:07;23.60;99.90
14473;DHT22;7322;50.872;4.386;2023-05-24T16:40:51;23.60;99.90
14473;DHT22;7322;50.872;4.386;2023-05-24T16:43:20;23.70;99.90
14473;DHT22;7322;50.872;4.386;2023-05-24T16:45:49;23.70;99.90
14473;DHT22;7322;50.872;4.386;2023-05-24T16:48:20;23.70;99.90
14473;DHT22;7322;50.872;4.386;2023-05-24T16:50:59;23.70;99.90
14473;DHT22;7322;50.872;4.386;2023-05-24T16:53:38;23.90;99.90
14473;DHT22;7322;50.872;4.386;2023-05-24T16:56:11;24.00;99.90
14473;DHT22;7322;50.872;4.386;2023-05-24T16:58:50;24.10;99.90
14473;DHT22;7322;50.872;4.386;2023-05-24T17:01:34;24.20;99.90
14473;DHT22;7322;50.872;4.386;2023-05-24T17:04:06;24.40;99.90
14473;DHT22;7322;50.872;4.386;2023-05-24T17:06:52;24.40;99.90
14473;DHT22;7322;50.872;4.386;2023-05-24T17:09:19;24.50;99.90
14473;DHT22;7322;50.872;4.386;2023-05-24T17:15:01;24.80;99.90
14473;DHT22;7322;50.872;4.386;2023-05-24T17:18:01;24.80;99.90
14473;DHT22;7322;50.872;4.386;2023-05-24T17:20:42;25.00;99.90
14473;DHT22;7322;50.872;4.386;2023-05-24T17:23:21;25.10;99.90
14473;DHT22;7322;50.872;4.386;2023-05-24T17:25:50;25.10;99.90
14473;DHT22;7322;50.872;4.386;2023-05-24T17:28:19;25.10;99.90
14473;DHT22;7322;50.872;4.386;2023-05-24T17:31:00;25.10;99.90
14473;DHT22;7322;50.872;4.386;2023-05-24T17:33:40;25.10;99.90
14473;DHT22;7322;50.872;4.386;2023-05-24T17:36:30;25.00;99.90